sensor_id;sensor_type;location;lat;lon;timestamp;pressure;altitude;pressure_sealevel;temperature;humidity
16821;BME280;8527;49.740;6.604;2022-10-30T00:03:57;100044.41;;;11.71;100.00
16821;BME280;8527;49.740;6.604;2022-10-30T00:08:58;100043.56;;;11.78;100.00
16821;BME280;8527;49.740;6.604;2022-10-30T00:13:56;100039.91;;;11.79;100.00
16821;BME280;8527;49.740;6.604;2022-10-30T00:18:55;100035.09;;;11.75;100.00
16821;BME280;8527;49.740;6.604;2022-10-30T00:23:53;100030.47;;;11.68;100.00
16821;BME280;8527;49.740;6.604;2022-10-30T00:28:55;100038.94;;;11.72;100.00
16821;BME280;8527;49.740;6.604;2022-10-30T00:33:54;100037.44;;;11.78;100.00
16821;BME280;8527;49.740;6.604;2022-10-30T00:38:52;100032.44;;;11.75;100.00
16821;BME280;8527;49.740;6.604;2022-10-30T00:43:53;100034.94;;;11.68;100.00
16821;BME280;8527;49.740;6.604;2022-10-30T00:48:55;100033.63;;;11.56;100.00
16821;BME280;8527;49.740;6.604;2022-10-30T00:53:55;100039.78;;;11.56;100.00
16821;BME280;8527;49.740;6.604;2022-10-30T00:59:01;100046.09;;;11.55;100.00
16821;BME280;8527;49.740;6.604;2022-10-30T01:04:02;100039.97;;;11.46;100.00
16821;BME280;8527;49.740;6.604;2022-10-30T01:09:03;100047.78;;;11.39;100.00
16821;BME280;8527;49.740;6.604;2022-10-30T01:14:06;100047.59;;;11.41;100.00
16821;BME280;8527;49.740;6.604;2022-10-30T01:19:13;100045.94;;;11.40;100.00
16821;BME280;8527;49.740;6.604;2022-10-30T01:24:30;100048.28;;;11.35;100.00
16821;BME280;8527;49.740;6.604;2022-10-30T01:29:40;100045.47;;;11.28;100.00
16821;BME280;8527;49.740;6.604;2022-10-30T01:34:48;100044.28;;;11.22;100.00
16821;BME280;8527;49.740;6.604;2022-10-30T01:39:48;100055.41;;;11.18;100.00
16821;BME280;8527;49.740;6.604;2022-10-30T01:44:50;100052.72;;;11.09;100.00
16821;BME280;8527;49.740;6.604;2022-10-30T01:50:13;100051.44;;;11.14;100.00
16821;BME280;8527;49.740;6.604;2022-10-30T01:55:24;100052.22;;;11.06;100.00
16821;BME280;8527;49.740;6.604;2022-10-30T02:00:28;100050.25;;;11.00;100.00
16821;BME280;8527;49.740;6.604;2022-10-30T02:05:33;100044.44;;;11.04;100.00
16821;BME280;8527;49.740;6.604;2022-10-30T02:10:34;100045.94;;;10.98;100.00
16821;BME280;8527;49.740;6.604;2022-10-30T02:15:37;100040.28;;;10.93;100.00
16821;BME280;8527;49.740;6.604;2022-10-30T02:20:38;100039.94;;;10.88;100.00
16821;BME280;8527;49.740;6.604;2022-10-30T02:25:36;100049.91;;;10.94;100.00
16821;BME280;8527;49.740;6.604;2022-10-30T02:30:35;100045.59;;;10.93;100.00
16821;BME280;8527;49.740;6.604;2022-10-30T02:35:33;100038.72;;;10.74;100.00
16821;BME280;8527;49.740;6.604;2022-10-30T02:40:34;100035.25;;;10.74;100.00
16821;BME280;8527;49.740;6.604;2022-10-30T02:45:33;100027.16;;;10.75;100.00
16821;BME280;8527;49.740;6.604;2022-10-30T02:50:31;100030.94;;;10.73;100.00
16821;BME280;8527;49.740;6.604;2022-10-30T02:55:30;100028.47;;;10.79;100.00
16821;BME280;8527;49.740;6.604;2022-10-30T03:00:31;100024.16;;;10.78;100.00
16821;BME280;8527;49.740;6.604;2022-10-30T03:05:30;100023.81;;;10.73;100.00
16821;BME280;8527;49.740;6.604;2022-10-30T03:10:29;100026.63;;;10.72;100.00
16821;BME280;8527;49.740;6.604;2022-10-30T03:15:32;100024.78;;;10.72;100.00
16821;BME280;8527;49.740;6.604;2022-10-30T03:20:30;100021.47;;;10.70;100.00
16821;BME280;8527;49.740;6.604;2022-10-30T03:25:31;100022.59;;;10.51;100.00
16821;BME280;8527;49.740;6.604;2022-10-30T03:30:36;100023.56;;;10.41;100.00
16821;BME280;8527;49.740;6.604;2022-10-30T03:35:34;100030.38;;;10.44;100.00
16821;BME280;8527;49.740;6.604;2022-10-30T03:40:33;100033.94;;;10.35;100.00
16821;BME280;8527;49.740;6.604;2022-10-30T03:45:34;100033.47;;;10.31;100.00
16821;BME280;8527;49.740;6.604;2022-10-30T03:50:33;100042.63;;;10.45;100.00
16821;BME280;8527;49.740;6.604;2022-10-30T03:55:32;100047.13;;;10.45;100.00
16821;BME280;8527;49.740;6.604;2022-10-30T04:00:36;100047.00;;;10.54;100.00
16821;BME280;8527;49.740;6.604;2022-10-30T04:05:35;100059.59;;;10.61;100.00
16821;BME280;8527;49.740;6.604;2022-10-30T04:10:34;100076.03;;;10.64;100.00
16821;BME280;8527;49.740;6.604;2022-10-30T04:15:33;100069.25;;;10.62;100.00
16821;BME280;8527;49.740;6.604;2022-10-30T04:20:34;100078.53;;;10.66;100.00
16821;BME280;8527;49.740;6.604;2022-10-30T04:25:33;100079.19;;;10.68;100.00
16821;BME280;8527;49.740;6.604;2022-10-30T04:30:32;100070.81;;;10.46;100.00
16821;BME280;8527;49.740;6.604;2022-10-30T04:35:35;100070.19;;;10.52;100.00
16821;BME280;8527;49.740;6.604;2022-10-30T04:40:35;100074.69;;;10.60;100.00
16821;BME280;8527;49.740;6.604;2022-10-30T04:45:34;100066.06;;;10.58;100.00
16821;BME280;8527;49.740;6.604;2022-10-30T04:50:38;100075.59;;;10.43;100.00
16821;BME280;8527;49.740;6.604;2022-10-30T04:55:37;100062.91;;;10.54;100.00
16821;BME280;8527;49.740;6.604;2022-10-30T05:00:36;100065.22;;;10.58;100.00
16821;BME280;8527;49.740;6.604;2022-10-30T05:05:37;100062.91;;;10.54;100.00
16821;BME280;8527;49.740;6.604;2022-10-30T05:10:37;100062.72;;;10.48;100.00
16821;BME280;8527;49.740;6.604;2022-10-30T05:15:36;100047.78;;;10.47;100.00
16821;BME280;8527;49.740;6.604;2022-10-30T05:20:37;100050.44;;;10.47;100.00
16821;BME280;8527;49.740;6.604;2022-10-30T05:25:35;100037.69;;;10.50;100.00
16821;BME280;8527;49.740;6.604;2022-10-30T05:30:34;100044.28;;;10.46;100.00
16821;BME280;8527;49.740;6.604;2022-10-30T05:35:33;100031.69;;;10.48;100.00
16821;BME280;8527;49.740;6.604;2022-10-30T05:40:35;100032.22;;;10.44;100.00
16821;BME280;8527;49.740;6.604;2022-10-30T05:45:33;100030.28;;;10.36;100.00
16821;BME280;8527;49.740;6.604;2022-10-30T05:50:32;100023.31;;;10.26;100.00
16821;BME280;8527;49.740;6.604;2022-10-30T05:55:33;100022.16;;;10.29;100.00
16821;BME280;8527;49.740;6.604;2022-10-30T06:00:34;100025.50;;;10.31;100.00
16821;BME280;8527;49.740;6.604;2022-10-30T06:05:37;100021.16;;;9.87;100.00
16821;BME280;8527;49.740;6.604;2022-10-30T06:10:38;100020.78;;;9.82;100.00
16821;BME280;8527;49.740;6.604;2022-10-30T06:15:37;100022.63;;;9.81;100.00
16821;BME280;8527;49.740;6.604;2022-10-30T06:20:35;100027.47;;;9.94;100.00
16821;BME280;8527;49.740;6.604;2022-10-30T06:25:34;100023.72;;;10.05;100.00
16821;BME280;8527;49.740;6.604;2022-10-30T06:30:36;100022.63;;;10.16;100.00
16821;BME280;8527;49.740;6.604;2022-10-30T06:35:34;100030.25;;;10.19;100.00
16821;BME280;8527;49.740;6.604;2022-10-30T06:40:35;100037.41;;;10.27;100.00
16821;BME280;8527;49.740;6.604;2022-10-30T06:45:37;100038.03;;;10.21;100.00
16821;BME280;8527;49.740;6.604;2022-10-30T06:50:35;100038.19;;;10.19;100.00
16821;BME280;8527;49.740;6.604;2022-10-30T06:55:39;100039.75;;;10.38;100.00
16821;BME280;8527;49.740;6.604;2022-10-30T07:00:40;100032.13;;;10.35;100.00
16821;BME280;8527;49.740;6.604;2022-10-30T07:05:38;100042.69;;;10.27;100.00
16821;BME280;8527;49.740;6.604;2022-10-30T07:10:37;100054.09;;;10.19;100.00
16821;BME280;8527;49.740;6.604;2022-10-30T07:15:35;100045.16;;;10.20;100.00
16821;BME280;8527;49.740;6.604;2022-10-30T07:20:36;100054.28;;;10.26;100.00
16821;BME280;8527;49.740;6.604;2022-10-30T07:25:35;100049.00;;;10.26;100.00
16821;BME280;8527;49.740;6.604;2022-10-30T07:30:33;100040.88;;;10.27;100.00
16821;BME280;8527;49.740;6.604;2022-10-30T07:35:37;100047.13;;;10.53;100.00
16821;BME280;8527;49.740;6.604;2022-10-30T07:40:35;100047.63;;;10.48;100.00
16821;BME280;8527;49.740;6.604;2022-10-30T07:45:34;100052.63;;;10.51;100.00
16821;BME280;8527;49.740;6.604;2022-10-30T07:50:32;100055.47;;;10.66;100.00
16821;BME280;8527;49.740;6.604;2022-10-30T07:55:43;100049.53;;;10.73;100.00
16821;BME280;8527;49.740;6.604;2022-10-30T08:00:44;100047.50;;;10.58;100.00
16821;BME280;8527;49.740;6.604;2022-10-30T08:05:43;100054.16;;;10.71;100.00
16821;BME280;8527;49.740;6.604;2022-10-30T08:10:44;100048.75;;;10.89;100.00
16821;BME280;8527;49.740;6.604;2022-10-30T08:15:45;100051.88;;;10.84;100.00
16821;BME280;8527;49.740;6.604;2022-10-30T08:20:52;100061.38;;;11.03;100.00
16821;BME280;8527;49.740;6.604;2022-10-30T08:25:59;100062.88;;;11.14;100.00
16821;BME280;8527;49.740;6.604;2022-10-30T08:30:59;100061.22;;;11.30;100.00
16821;BME280;8527;49.740;6.604;2022-10-30T08:35:59;100058.88;;;11.10;100.00
16821;BME280;8527;49.740;6.604;2022-10-30T08:41:00;100057.53;;;10.97;100.00
16821;BME280;8527;49.740;6.604;2022-10-30T08:45:59;100055.75;;;11.15;100.00
16821;BME280;8527;49.740;6.604;2022-10-30T08:50:58;100053.91;;;11.23;100.00
16821;BME280;8527;49.740;6.604;2022-10-30T08:56:04;100058.91;;;11.35;100.00
16821;BME280;8527;49.740;6.604;2022-10-30T09:01:03;100047.94;;;11.30;100.00
16821;BME280;8527;49.740;6.604;2022-10-30T09:06:01;100044.47;;;11.13;100.00
16821;BME280;8527;49.740;6.604;2022-10-30T09:10:59;100038.47;;;11.27;100.00
16821;BME280;8527;49.740;6.604;2022-10-30T09:16:01;100042.63;;;11.21;100.00
16821;BME280;8527;49.740;6.604;2022-10-30T09:21:00;100040.94;;;11.70;100.00
16821;BME280;8527;49.740;6.604;2022-10-30T09:25:58;100044.06;;;11.90;100.00
16821;BME280;8527;49.740;6.604;2022-10-30T09:30:56;100031.66;;;11.58;100.00
16821;BME280;8527;49.740;6.604;2022-10-30T09:35:57;100024.13;;;12.03;100.00
16821;BME280;8527;49.740;6.604;2022-10-30T09:41:28;100024.88;;;12.20;100.00
16821;BME280;8527;49.740;6.604;2022-10-30T09:46:53;100029.25;;;12.44;100.00
16821;BME280;8527;49.740;6.604;2022-10-30T09:52:14;100026.34;;;12.62;100.00
16821;BME280;8527;49.740;6.604;2022-10-30T09:57:24;100021.78;;;12.94;100.00
16821;BME280;8527;49.740;6.604;2022-10-30T10:02:32;100023.16;;;13.14;100.00
16821;BME280;8527;49.740;6.604;2022-10-30T10:07:37;100030.84;;;13.55;100.00
16821;BME280;8527;49.740;6.604;2022-10-30T10:12:41;100033.34;;;13.72;100.00
16821;BME280;8527;49.740;6.604;2022-10-30T10:17:43;100043.28;;;13.93;100.00
16821;BME280;8527;49.740;6.604;2022-10-30T10:22:47;100056.34;;;14.03;100.00
16821;BME280;8527;49.740;6.604;2022-10-30T10:28:00;100052.50;;;14.05;99.11
16821;BME280;8527;49.740;6.604;2022-10-30T10:33:13;100047.63;;;14.09;98.66
16821;BME280;8527;49.740;6.604;2022-10-30T10:38:28;100048.97;;;14.20;99.03
16821;BME280;8527;49.740;6.604;2022-10-30T10:43:39;100035.53;;;14.43;96.61
16821;BME280;8527;49.740;6.604;2022-10-30T10:48:52;100038.47;;;14.33;96.67
16821;BME280;8527;49.740;6.604;2022-10-30T10:53:59;100039.00;;;14.59;96.25
16821;BME280;8527;49.740;6.604;2022-10-30T10:59:02;100022.72;;;14.90;94.65
16821;BME280;8527;49.740;6.604;2022-10-30T11:04:07;100029.41;;;15.23;93.54
16821;BME280;8527;49.740;6.604;2022-10-30T11:09:16;100014.72;;;15.41;92.68
16821;BME280;8527;49.740;6.604;2022-10-30T11:14:17;100013.56;;;15.50;92.59
16821;BME280;8527;49.740;6.604;2022-10-30T11:19:16;100010.50;;;15.53;90.49
16821;BME280;8527;49.740;6.604;2022-10-30T11:24:28;100003.03;;;15.77;91.66
16821;BME280;8527;49.740;6.604;2022-10-30T11:29:27;99998.03;;;15.96;92.20
16821;BME280;8527;49.740;6.604;2022-10-30T11:34:34;100001.19;;;16.06;90.18
16821;BME280;8527;49.740;6.604;2022-10-30T11:39:35;99991.28;;;16.55;92.01
16821;BME280;8527;49.740;6.604;2022-10-30T11:44:36;99997.88;;;16.66;87.75
16821;BME280;8527;49.740;6.604;2022-10-30T11:49:42;99997.97;;;17.00;87.62
16821;BME280;8527;49.740;6.604;2022-10-30T11:54:46;99987.03;;;17.15;86.13
16821;BME280;8527;49.740;6.604;2022-10-30T11:59:48;99986.00;;;17.29;87.75
16821;BME280;8527;49.740;6.604;2022-10-30T12:04:49;99973.41;;;17.57;88.88
16821;BME280;8527;49.740;6.604;2022-10-30T12:09:52;99979.19;;;17.61;85.52
16821;BME280;8527;49.740;6.604;2022-10-30T12:15:06;99988.22;;;17.80;88.90
16821;BME280;8527;49.740;6.604;2022-10-30T12:20:06;99981.75;;;18.01;88.09
16821;BME280;8527;49.740;6.604;2022-10-30T12:25:19;99983.81;;;18.06;91.09
16821;BME280;8527;49.740;6.604;2022-10-30T12:30:19;99986.28;;;18.07;90.28
16821;BME280;8527;49.740;6.604;2022-10-30T12:35:35;99977.56;;;18.19;89.42
16821;BME280;8527;49.740;6.604;2022-10-30T12:40:42;99972.50;;;18.42;88.48
16821;BME280;8527;49.740;6.604;2022-10-30T12:45:45;99974.69;;;18.59;87.59
16821;BME280;8527;49.740;6.604;2022-10-30T12:50:52;99969.00;;;18.74;88.32
16821;BME280;8527;49.740;6.604;2022-10-30T12:55:59;99964.19;;;18.83;86.97
16821;BME280;8527;49.740;6.604;2022-10-30T13:01:11;99956.44;;;18.93;85.29
16821;BME280;8527;49.740;6.604;2022-10-30T13:06:16;99952.69;;;19.01;87.23
16821;BME280;8527;49.740;6.604;2022-10-30T13:11:24;99941.88;;;19.08;87.68
16821;BME280;8527;49.740;6.604;2022-10-30T13:16:26;99949.50;;;19.36;87.93
16821;BME280;8527;49.740;6.604;2022-10-30T13:21:30;99946.66;;;19.50;86.64
16821;BME280;8527;49.740;6.604;2022-10-30T13:26:38;99947.44;;;19.57;86.88
16821;BME280;8527;49.740;6.604;2022-10-30T13:31:46;99941.31;;;19.68;86.28
16821;BME280;8527;49.740;6.604;2022-10-30T13:36:54;99940.34;;;19.63;84.77
16821;BME280;8527;49.740;6.604;2022-10-30T13:47:30;99947.44;;;19.57;84.89
16821;BME280;8527;49.740;6.604;2022-10-30T13:52:33;99936.56;;;19.45;86.22
16821;BME280;8527;49.740;6.604;2022-10-30T13:57:38;99939.19;;;19.52;87.28
16821;BME280;8527;49.740;6.604;2022-10-30T14:08:05;99939.25;;;19.45;86.92
16821;BME280;8527;49.740;6.604;2022-10-30T14:13:14;99941.28;;;19.50;86.64
16821;BME280;8527;49.740;6.604;2022-10-30T14:18:23;99940.88;;;19.53;87.13
16821;BME280;8527;49.740;6.604;2022-10-30T14:23:24;99940.78;;;19.60;86.56
16821;BME280;8527;49.740;6.604;2022-10-30T14:28:25;99945.03;;;19.49;85.76
16821;BME280;8527;49.740;6.604;2022-10-30T14:33:33;99937.63;;;19.44;84.68
16821;BME280;8527;49.740;6.604;2022-10-30T14:38:35;99940.31;;;19.44;85.75
16821;BME280;8527;49.740;6.604;2022-10-30T14:43:43;99943.06;;;19.37;85.93
16821;BME280;8527;49.740;6.604;2022-10-30T14:48:47;99946.06;;;19.29;85.93
16821;BME280;8527;49.740;6.604;2022-10-30T14:53:58;99948.50;;;19.12;85.62
16821;BME280;8527;49.740;6.604;2022-10-30T14:59:20;99960.72;;;19.08;84.54
16821;BME280;8527;49.740;6.604;2022-10-30T15:04:22;99960.13;;;18.99;84.96
16821;BME280;8527;49.740;6.604;2022-10-30T15:09:36;99971.03;;;18.79;84.26
16821;BME280;8527;49.740;6.604;2022-10-30T15:14:40;99965.00;;;18.58;85.93
16821;BME280;8527;49.740;6.604;2022-10-30T15:19:41;99965.22;;;18.50;85.65
16821;BME280;8527;49.740;6.604;2022-10-30T15:24:39;99964.66;;;18.41;85.05
16821;BME280;8527;49.740;6.604;2022-10-30T15:29:44;99965.88;;;18.45;84.22
16821;BME280;8527;49.740;6.604;2022-10-30T15:34:55;99970.56;;;18.18;84.74
16821;BME280;8527;49.740;6.604;2022-10-30T15:40:10;99973.28;;;18.04;84.56
16821;BME280;8527;49.740;6.604;2022-10-30T15:45:16;99978.47;;;17.92;84.78
16821;BME280;8527;49.740;6.604;2022-10-30T15:50:15;99980.16;;;17.80;84.58
16821;BME280;8527;49.740;6.604;2022-10-30T15:55:19;99992.38;;;17.62;85.71
16821;BME280;8527;49.740;6.604;2022-10-30T16:00:24;100006.22;;;17.52;86.37
16821;BME280;8527;49.740;6.604;2022-10-30T16:05:23;100003.53;;;17.46;86.58
16821;BME280;8527;49.740;6.604;2022-10-30T16:10:23;100010.97;;;17.37;85.87
16821;BME280;8527;49.740;6.604;2022-10-30T16:15:29;100021.09;;;17.21;86.17
16821;BME280;8527;49.740;6.604;2022-10-30T16:20:28;100015.44;;;16.89;88.22
16821;BME280;8527;49.740;6.604;2022-10-30T16:25:27;100020.63;;;16.91;87.89
16821;BME280;8527;49.740;6.604;2022-10-30T16:30:29;100028.84;;;16.82;87.73
16821;BME280;8527;49.740;6.604;2022-10-30T16:35:28;100033.56;;;16.73;87.96
16821;BME280;8527;49.740;6.604;2022-10-30T16:40:27;100038.63;;;16.48;88.23
16821;BME280;8527;49.740;6.604;2022-10-30T16:45:48;100043.88;;;16.21;88.72
16821;BME280;8527;49.740;6.604;2022-10-30T16:50:46;100052.25;;;16.11;89.05
16821;BME280;8527;49.740;6.604;2022-10-30T16:55:46;100054.16;;;15.89;89.91
16821;BME280;8527;49.740;6.604;2022-10-30T17:00:52;100050.22;;;15.85;89.56
16821;BME280;8527;49.740;6.604;2022-10-30T17:06:00;100060.06;;;15.78;89.70
16821;BME280;8527;49.740;6.604;2022-10-30T17:11:00;100064.06;;;15.67;90.05
16821;BME280;8527;49.740;6.604;2022-10-30T17:16:12;100068.31;;;15.54;90.34
16821;BME280;8527;49.740;6.604;2022-10-30T17:21:16;100077.75;;;15.50;89.54
16821;BME280;8527;49.740;6.604;2022-10-30T17:26:16;100082.22;;;15.43;91.21
16821;BME280;8527;49.740;6.604;2022-10-30T17:31:24;100094.19;;;15.25;91.16
16821;BME280;8527;49.740;6.604;2022-10-30T17:36:23;100096.22;;;15.23;90.47
16821;BME280;8527;49.740;6.604;2022-10-30T17:41:22;100106.53;;;15.26;90.14
16821;BME280;8527;49.740;6.604;2022-10-30T17:46:23;100108.31;;;15.19;90.88
16821;BME280;8527;49.740;6.604;2022-10-30T17:51:22;100118.97;;;14.97;92.55
16821;BME280;8527;49.740;6.604;2022-10-30T17:56:22;100128.97;;;14.73;93.15
16821;BME280;8527;49.740;6.604;2022-10-30T18:01:25;100135.31;;;14.72;92.81
16821;BME280;8527;49.740;6.604;2022-10-30T18:06:26;100141.31;;;14.74;92.36
16821;BME280;8527;49.740;6.604;2022-10-30T18:11:24;100141.75;;;14.63;92.90
16821;BME280;8527;49.740;6.604;2022-10-30T18:16:26;100136.88;;;14.52;93.38
16821;BME280;8527;49.740;6.604;2022-10-30T18:21:24;100142.47;;;14.27;96.13
16821;BME280;8527;49.740;6.604;2022-10-30T18:26:24;100159.22;;;14.20;94.41
16821;BME280;8527;49.740;6.604;2022-10-30T18:31:26;100159.50;;;14.11;95.94
16821;BME280;8527;49.740;6.604;2022-10-30T18:36:24;100149.81;;;13.95;96.12
16821;BME280;8527;49.740;6.604;2022-10-30T18:41:27;100158.47;;;13.97;95.95
16821;BME280;8527;49.740;6.604;2022-10-30T18:46:32;100164.31;;;13.92;95.92
16821;BME280;8527;49.740;6.604;2022-10-30T18:51:31;100161.44;;;13.78;95.97
16821;BME280;8527;49.740;6.604;2022-10-30T18:56:30;100170.63;;;13.76;96.12
16821;BME280;8527;49.740;6.604;2022-10-30T19:01:32;100172.88;;;13.64;96.04
16821;BME280;8527;49.740;6.604;2022-10-30T19:06:30;100178.38;;;13.62;96.05
16821;BME280;8527;49.740;6.604;2022-10-30T19:11:29;100187.00;;;13.49;96.73
16821;BME280;8527;49.740;6.604;2022-10-30T19:16:27;100177.19;;;13.42;96.61
16821;BME280;8527;49.740;6.604;2022-10-30T19:21:28;100180.66;;;13.42;97.81
16821;BME280;8527;49.740;6.604;2022-10-30T19:26:27;100185.72;;;13.37;97.83
16821;BME280;8527;49.740;6.604;2022-10-30T19:31:28;100182.03;;;13.38;96.79
16821;BME280;8527;49.740;6.604;2022-10-30T19:36:31;100184.81;;;13.21;97.03
16821;BME280;8527;49.740;6.604;2022-10-30T19:41:30;100192.34;;;13.09;98.54
16821;BME280;8527;49.740;6.604;2022-10-30T19:46:28;100194.00;;;13.11;98.49
16821;BME280;8527;49.740;6.604;2022-10-30T19:51:30;100200.63;;;12.83;99.08
16821;BME280;8527;49.740;6.604;2022-10-30T19:56:28;100206.88;;;12.99;98.87
16821;BME280;8527;49.740;6.604;2022-10-30T20:01:26;100213.03;;;12.99;99.07
16821;BME280;8527;49.740;6.604;2022-10-30T20:06:25;100209.72;;;12.97;99.79
16821;BME280;8527;49.740;6.604;2022-10-30T20:11:26;100207.78;;;12.83;98.72
16821;BME280;8527;49.740;6.604;2022-10-30T20:16:26;100204.69;;;12.62;99.34
16821;BME280;8527;49.740;6.604;2022-10-30T20:21:26;100201.69;;;12.57;100.00
16821;BME280;8527;49.740;6.604;2022-10-30T20:26:28;100203.03;;;12.53;100.00
16821;BME280;8527;49.740;6.604;2022-10-30T20:31:29;100207.19;;;12.47;100.00
16821;BME280;8527;49.740;6.604;2022-10-30T20:36:30;100203.22;;;12.43;100.00
16821;BME280;8527;49.740;6.604;2022-10-30T20:41:32;100203.72;;;12.30;100.00
16821;BME280;8527;49.740;6.604;2022-10-30T20:46:30;100207.25;;;12.22;100.00
16821;BME280;8527;49.740;6.604;2022-10-30T20:51:28;100207.56;;;12.19;99.98
16821;BME280;8527;49.740;6.604;2022-10-30T20:56:27;100214.41;;;12.14;100.00
16821;BME280;8527;49.740;6.604;2022-10-30T21:01:29;100208.25;;;12.21;100.00
16821;BME280;8527;49.740;6.604;2022-10-30T21:06:28;100220.06;;;12.10;100.00
16821;BME280;8527;49.740;6.604;2022-10-30T21:11:26;100232.00;;;11.98;100.00
16821;BME280;8527;49.740;6.604;2022-10-30T21:16:25;100227.69;;;11.97;100.00
16821;BME280;8527;49.740;6.604;2022-10-30T21:21:26;100229.16;;;12.00;99.91
16821;BME280;8527;49.740;6.604;2022-10-30T21:26:24;100224.50;;;11.85;100.00
16821;BME280;8527;49.740;6.604;2022-10-30T21:31:22;100235.97;;;11.86;100.00
16821;BME280;8527;49.740;6.604;2022-10-30T21:36:23;100231.31;;;11.79;100.00
16821;BME280;8527;49.740;6.604;2022-10-30T21:41:24;100223.81;;;11.75;100.00
16821;BME280;8527;49.740;6.604;2022-10-30T21:46:25;100233.97;;;11.71;100.00
16821;BME280;8527;49.740;6.604;2022-10-30T21:51:27;100235.94;;;11.61;100.00
16821;BME280;8527;49.740;6.604;2022-10-30T21:56:28;100233.75;;;11.48;100.00
16821;BME280;8527;49.740;6.604;2022-10-30T22:01:30;100235.91;;;11.44;100.00
16821;BME280;8527;49.740;6.604;2022-10-30T22:06:29;100236.56;;;11.46;100.00
16821;BME280;8527;49.740;6.604;2022-10-30T22:11:30;100234.75;;;11.38;100.00
16821;BME280;8527;49.740;6.604;2022-10-30T22:16:30;100240.81;;;11.31;100.00
16821;BME280;8527;49.740;6.604;2022-10-30T22:21:32;100234.84;;;11.20;100.00
16821;BME280;8527;49.740;6.604;2022-10-30T22:26:33;100244.47;;;11.21;100.00
16821;BME280;8527;49.740;6.604;2022-10-30T22:31:31;100241.63;;;11.23;100.00
16821;BME280;8527;49.740;6.604;2022-10-30T22:36:32;100241.91;;;11.11;100.00
16821;BME280;8527;49.740;6.604;2022-10-30T22:41:34;100235.44;;;11.06;100.00
16821;BME280;8527;49.740;6.604;2022-10-30T22:46:32;100244.72;;;11.02;100.00
16821;BME280;8527;49.740;6.604;2022-10-30T22:51:32;100245.69;;;11.01;100.00
16821;BME280;8527;49.740;6.604;2022-10-30T22:56:34;100251.13;;;10.91;100.00
16821;BME280;8527;49.740;6.604;2022-10-30T23:01:34;100261.88;;;10.81;100.00
16821;BME280;8527;49.740;6.604;2022-10-30T23:06:34;100255.88;;;10.79;100.00
16821;BME280;8527;49.740;6.604;2022-10-30T23:11:36;100258.19;;;10.74;100.00
16821;BME280;8527;49.740;6.604;2022-10-30T23:16:34;100256.56;;;10.81;100.00
16821;BME280;8527;49.740;6.604;2022-10-30T23:21:33;100269.31;;;10.77;100.00
16821;BME280;8527;49.740;6.604;2022-10-30T23:26:35;100281.06;;;10.75;100.00
16821;BME280;8527;49.740;6.604;2022-10-30T23:31:35;100284.19;;;10.70;100.00
16821;BME280;8527;49.740;6.604;2022-10-30T23:36:34;100277.06;;;10.71;100.00
16821;BME280;8527;49.740;6.604;2022-10-30T23:41:39;100282.31;;;10.62;100.00
16821;BME280;8527;49.740;6.604;2022-10-30T23:46:39;100277.84;;;10.63;100.00
16821;BME280;8527;49.740;6.604;2022-10-30T23:51:38;100283.09;;;10.54;100.00
16821;BME280;8527;49.740;6.604;2022-10-30T23:56:39;100284.41;;;10.50;100.00
